sensor_id;sensor_type;location;lat;lon;timestamp;P1;durP1;ratioP1;P2;durP2;ratioP2
25609;SDS011;13479;49.044;8.716;2023-02-01T05:02:19;4.87;;;2.27;;
25609;SDS011;13479;49.044;8.716;2023-02-01T05:04:44;4.13;;;2.57;;
25609;SDS011;13479;49.044;8.716;2023-02-01T05:07:09;4.00;;;2.23;;
25609;SDS011;13479;49.044;8.716;2023-02-01T05:09:34;4.30;;;2.37;;
25609;SDS011;13479;49.044;8.716;2023-02-01T05:12:00;4.60;;;2.77;;
25609;SDS011;13479;49.044;8.716;2023-02-01T05:14:43;4.60;;;2.27;;
25609;SDS011;13479;49.044;8.716;2023-02-01T05:17:09;4.90;;;2.53;;
25609;SDS011;13479;49.044;8.716;2023-02-01T05:19:34;6.33;;;2.30;;
25609;SDS011;13479;49.044;8.716;2023-02-01T05:21:59;3.73;;;1.90;;
25609;SDS011;13479;49.044;8.716;2023-02-01T05:24:24;3.60;;;1.93;;
25609;SDS011;13479;49.044;8.716;2023-02-01T05:26:51;4.40;;;2.00;;
25609;SDS011;13479;49.044;8.716;2023-02-01T05:29:17;3.40;;;2.00;;
25609;SDS011;13479;49.044;8.716;2023-02-01T05:31:46;3.97;;;2.00;;
25609;SDS011;13479;49.044;8.716;2023-02-01T05:34:12;3.50;;;1.93;;
25609;SDS011;13479;49.044;8.716;2023-02-01T05:36:37;3.73;;;1.90;;
25609;SDS011;13479;49.044;8.716;2023-02-01T05:39:03;5.77;;;2.13;;
25609;SDS011;13479;49.044;8.716;2023-02-01T05:41:28;2.80;;;1.67;;
25609;SDS011;13479;49.044;8.716;2023-02-01T05:43:54;3.37;;;1.87;;
25609;SDS011;13479;49.044;8.716;2023-02-01T05:46:19;6.30;;;2.10;;
25609;SDS011;13479;49.044;8.716;2023-02-01T05:48:44;4.40;;;2.03;;
25609;SDS011;13479;49.044;8.716;2023-02-01T05:51:10;4.87;;;2.10;;
25609;SDS011;13479;49.044;8.716;2023-02-01T05:53:36;10.67;;;2.70;;
25609;SDS011;13479;49.044;8.716;2023-02-01T05:56:01;4.63;;;1.80;;
25609;SDS011;13479;49.044;8.716;2023-02-01T05:58:27;6.30;;;2.40;;
25609;SDS011;13479;49.044;8.716;2023-02-01T06:00:53;6.03;;;2.50;;
25609;SDS011;13479;49.044;8.716;2023-02-01T06:03:18;7.97;;;3.20;;
25609;SDS011;13479;49.044;8.716;2023-02-01T06:05:44;7.87;;;3.07;;
25609;SDS011;13479;49.044;8.716;2023-02-01T06:08:10;7.33;;;3.17;;
25609;SDS011;13479;49.044;8.716;2023-02-01T06:10:35;9.47;;;3.43;;
25609;SDS011;13479;49.044;8.716;2023-02-01T06:13:01;8.23;;;3.30;;
25609;SDS011;13479;49.044;8.716;2023-02-01T06:15:27;9.80;;;3.03;;
25609;SDS011;13479;49.044;8.716;2023-02-01T06:17:53;8.23;;;3.53;;
25609;SDS011;13479;49.044;8.716;2023-02-01T06:20:18;8.50;;;3.60;;
25609;SDS011;13479;49.044;8.716;2023-02-01T06:22:43;7.70;;;3.40;;
25609;SDS011;13479;49.044;8.716;2023-02-01T06:25:09;11.53;;;3.80;;
25609;SDS011;13479;49.044;8.716;2023-02-01T06:27:35;12.23;;;4.10;;
25609;SDS011;13479;49.044;8.716;2023-02-01T06:30:01;9.30;;;3.87;;
25609;SDS011;13479;49.044;8.716;2023-02-01T06:32:27;12.23;;;3.80;;
25609;SDS011;13479;49.044;8.716;2023-02-01T06:34:52;9.60;;;3.97;;
25609;SDS011;13479;49.044;8.716;2023-02-01T06:37:18;10.97;;;3.90;;
25609;SDS011;13479;49.044;8.716;2023-02-01T06:39:44;7.87;;;3.83;;
25609;SDS011;13479;49.044;8.716;2023-02-01T06:42:09;10.37;;;3.87;;
25609;SDS011;13479;49.044;8.716;2023-02-01T06:44:35;9.57;;;4.20;;
25609;SDS011;13479;49.044;8.716;2023-02-01T06:47:00;9.20;;;4.20;;
25609;SDS011;13479;49.044;8.716;2023-02-01T06:49:25;11.27;;;4.83;;
25609;SDS011;13479;49.044;8.716;2023-02-01T06:57:01;10.20;;;3.77;;
25609;SDS011;13479;49.044;8.716;2023-02-01T06:59:27;9.73;;;4.50;;
25609;SDS011;13479;49.044;8.716;2023-02-01T07:01:52;9.03;;;4.00;;
25609;SDS011;13479;49.044;8.716;2023-02-01T07:17:13;9.33;;;3.77;;
25609;SDS011;13479;49.044;8.716;2023-02-01T07:27:18;9.63;;;3.93;;
25609;SDS011;13479;49.044;8.716;2023-02-01T07:29:54;12.60;;;4.07;;
25609;SDS011;13479;49.044;8.716;2023-02-01T07:32:20;11.20;;;4.40;;
25609;SDS011;13479;49.044;8.716;2023-02-01T07:34:45;10.47;;;4.50;;
25609;SDS011;13479;49.044;8.716;2023-02-01T07:37:11;10.70;;;4.03;;
25609;SDS011;13479;49.044;8.716;2023-02-01T07:39:36;12.93;;;4.50;;
25609;SDS011;13479;49.044;8.716;2023-02-01T07:42:01;8.63;;;4.10;;
25609;SDS011;13479;49.044;8.716;2023-02-01T07:44:27;10.50;;;4.00;;
25609;SDS011;13479;49.044;8.716;2023-02-01T07:46:52;10.57;;;4.30;;
25609;SDS011;13479;49.044;8.716;2023-02-01T07:49:17;10.90;;;3.77;;
25609;SDS011;13479;49.044;8.716;2023-02-01T07:51:43;9.53;;;4.17;;
25609;SDS011;13479;49.044;8.716;2023-02-01T07:54:08;10.30;;;3.53;;
25609;SDS011;13479;49.044;8.716;2023-02-01T07:56:33;8.83;;;4.00;;
25609;SDS011;13479;49.044;8.716;2023-02-01T07:58:58;10.27;;;3.80;;
25609;SDS011;13479;49.044;8.716;2023-02-01T08:01:26;8.77;;;3.47;;
25609;SDS011;13479;49.044;8.716;2023-02-01T08:03:53;8.53;;;3.30;;
25609;SDS011;13479;49.044;8.716;2023-02-01T08:06:20;12.73;;;3.47;;
25609;SDS011;13479;49.044;8.716;2023-02-01T08:08:46;10.27;;;3.50;;
25609;SDS011;13479;49.044;8.716;2023-02-01T08:11:13;7.43;;;3.17;;
25609;SDS011;13479;49.044;8.716;2023-02-01T08:13:39;7.80;;;2.83;;
25609;SDS011;13479;49.044;8.716;2023-02-01T08:16:05;11.20;;;3.83;;
25609;SDS011;13479;49.044;8.716;2023-02-01T08:18:32;10.80;;;3.20;;
25609;SDS011;13479;49.044;8.716;2023-02-01T08:21:02;8.73;;;3.17;;
25609;SDS011;13479;49.044;8.716;2023-02-01T08:23:35;12.53;;;3.63;;
25609;SDS011;13479;49.044;8.716;2023-02-01T08:26:12;8.67;;;2.60;;
25609;SDS011;13479;49.044;8.716;2023-02-01T08:28:40;12.10;;;2.40;;
25609;SDS011;13479;49.044;8.716;2023-02-01T08:31:08;9.50;;;2.40;;
25609;SDS011;13479;49.044;8.716;2023-02-01T08:33:36;11.83;;;3.23;;
25609;SDS011;13479;49.044;8.716;2023-02-01T08:36:04;7.23;;;2.70;;
25609;SDS011;13479;49.044;8.716;2023-02-01T08:38:30;7.67;;;2.50;;
25609;SDS011;13479;49.044;8.716;2023-02-01T08:40:56;7.37;;;2.30;;
25609;SDS011;13479;49.044;8.716;2023-02-01T08:43:21;11.33;;;2.70;;
25609;SDS011;13479;49.044;8.716;2023-02-01T08:45:47;7.10;;;2.13;;
25609;SDS011;13479;49.044;8.716;2023-02-01T08:48:12;10.90;;;2.77;;
25609;SDS011;13479;49.044;8.716;2023-02-01T08:50:37;8.63;;;2.10;;
25609;SDS011;13479;49.044;8.716;2023-02-01T08:53:03;6.23;;;2.10;;
25609;SDS011;13479;49.044;8.716;2023-02-01T08:55:28;8.63;;;2.13;;
25609;SDS011;13479;49.044;8.716;2023-02-01T08:57:53;7.10;;;2.07;;
25609;SDS011;13479;49.044;8.716;2023-02-01T09:00:18;8.97;;;2.50;;
25609;SDS011;13479;49.044;8.716;2023-02-01T09:02:44;10.63;;;2.33;;
25609;SDS011;13479;49.044;8.716;2023-02-01T09:05:10;7.83;;;2.30;;
25609;SDS011;13479;49.044;8.716;2023-02-01T09:07:36;9.57;;;2.53;;
25609;SDS011;13479;49.044;8.716;2023-02-01T09:10:02;9.73;;;2.80;;
25609;SDS011;13479;49.044;8.716;2023-02-01T09:12:29;8.40;;;2.33;;
25609;SDS011;13479;49.044;8.716;2023-02-01T09:14:57;10.83;;;2.43;;
25609;SDS011;13479;49.044;8.716;2023-02-01T09:17:24;10.10;;;3.03;;
25609;SDS011;13479;49.044;8.716;2023-02-01T09:19:53;9.13;;;2.60;;
25609;SDS011;13479;49.044;8.716;2023-02-01T09:22:18;5.73;;;1.93;;
25609;SDS011;13479;49.044;8.716;2023-02-01T09:24:43;10.20;;;2.50;;
25609;SDS011;13479;49.044;8.716;2023-02-01T09:27:09;7.97;;;1.98;;
25609;SDS011;13479;49.044;8.716;2023-02-01T09:29:34;7.55;;;2.03;;
25609;SDS011;13479;49.044;8.716;2023-02-01T09:31:59;8.05;;;2.17;;
25609;SDS011;13479;49.044;8.716;2023-02-01T09:34:25;9.68;;;1.85;;
25609;SDS011;13479;49.044;8.716;2023-02-01T09:36:50;9.32;;;2.08;;
25609;SDS011;13479;49.044;8.716;2023-02-01T09:39:15;7.55;;;2.25;;
25609;SDS011;13479;49.044;8.716;2023-02-01T09:46:57;13.30;;;2.45;;
25609;SDS011;13479;49.044;8.716;2023-02-01T09:49:26;10.60;;;2.20;;
25609;SDS011;13479;49.044;8.716;2023-02-01T09:51:56;9.43;;;2.33;;
25609;SDS011;13479;49.044;8.716;2023-02-01T09:54:26;9.77;;;1.88;;
25609;SDS011;13479;49.044;8.716;2023-02-01T09:57:00;6.57;;;1.80;;
25609;SDS011;13479;49.044;8.716;2023-02-01T09:59:34;8.18;;;2.08;;
25609;SDS011;13479;49.044;8.716;2023-02-01T10:02:08;8.50;;;2.05;;
25609;SDS011;13479;49.044;8.716;2023-02-01T10:04:37;11.68;;;2.28;;
25609;SDS011;13479;49.044;8.716;2023-02-01T10:07:09;11.80;;;2.30;;
25609;SDS011;13479;49.044;8.716;2023-02-01T10:09:57;9.23;;;2.13;;
25609;SDS011;13479;49.044;8.716;2023-02-01T10:15:22;10.77;;;2.13;;
25609;SDS011;13479;49.044;8.716;2023-02-01T10:26:19;12.40;;;2.42;;
25609;SDS011;13479;49.044;8.716;2023-02-01T10:28:48;11.98;;;2.20;;
25609;SDS011;13479;49.044;8.716;2023-02-01T10:31:16;8.48;;;1.55;;
25609;SDS011;13479;49.044;8.716;2023-02-01T10:33:46;7.80;;;1.95;;
25609;SDS011;13479;49.044;8.716;2023-02-01T10:38:58;10.35;;;2.30;;
25609;SDS011;13479;49.044;8.716;2023-02-01T10:41:24;12.63;;;2.40;;
25609;SDS011;13479;49.044;8.716;2023-02-01T10:43:58;11.73;;;2.38;;
25609;SDS011;13479;49.044;8.716;2023-02-01T10:46:24;9.23;;;2.10;;
25609;SDS011;13479;49.044;8.716;2023-02-01T10:48:50;10.75;;;2.40;;
25609;SDS011;13479;49.044;8.716;2023-02-01T10:53:55;7.80;;;1.65;;
25609;SDS011;13479;49.044;8.716;2023-02-01T10:56:24;8.73;;;2.00;;
25609;SDS011;13479;49.044;8.716;2023-02-01T10:58:58;10.98;;;1.90;;
25609;SDS011;13479;49.044;8.716;2023-02-01T11:01:30;12.27;;;2.17;;
25609;SDS011;13479;49.044;8.716;2023-02-01T11:04:04;8.93;;;2.25;;
25609;SDS011;13479;49.044;8.716;2023-02-01T11:06:34;10.00;;;2.10;;
25609;SDS011;13479;49.044;8.716;2023-02-01T11:09:10;9.48;;;1.88;;
25609;SDS011;13479;49.044;8.716;2023-02-01T11:16:43;9.10;;;2.33;;
25609;SDS011;13479;49.044;8.716;2023-02-01T11:19:14;9.40;;;2.00;;
25609;SDS011;13479;49.044;8.716;2023-02-01T11:21:41;10.10;;;2.80;;
25609;SDS011;13479;49.044;8.716;2023-02-01T11:24:14;12.05;;;2.42;;
25609;SDS011;13479;49.044;8.716;2023-02-01T11:26:55;11.53;;;2.67;;
25609;SDS011;13479;49.044;8.716;2023-02-01T11:29:22;8.43;;;2.20;;
25609;SDS011;13479;49.044;8.716;2023-02-01T11:31:55;12.52;;;2.13;;
25609;SDS011;13479;49.044;8.716;2023-02-01T11:34:22;9.27;;;2.30;;
25609;SDS011;13479;49.044;8.716;2023-02-01T11:36:51;8.37;;;2.20;;
25609;SDS011;13479;49.044;8.716;2023-02-01T11:39:22;11.90;;;2.40;;
25609;SDS011;13479;49.044;8.716;2023-02-01T11:44:41;11.38;;;2.25;;
25609;SDS011;13479;49.044;8.716;2023-02-01T11:49:47;8.83;;;1.87;;
25609;SDS011;13479;49.044;8.716;2023-02-01T12:03:08;9.30;;;2.27;;
25609;SDS011;13479;49.044;8.716;2023-02-01T12:13:52;14.50;;;2.30;;
25609;SDS011;13479;49.044;8.716;2023-02-01T12:19:09;9.73;;;2.10;;
25609;SDS011;13479;49.044;8.716;2023-02-01T12:33:08;9.00;;;2.40;;
25609;SDS011;13479;49.044;8.716;2023-02-01T12:38:52;12.50;;;2.30;;
25609;SDS011;13479;49.044;8.716;2023-02-01T12:46:41;10.93;;;2.27;;
25609;SDS011;13479;49.044;8.716;2023-02-01T12:49:13;12.70;;;2.00;;
25609;SDS011;13479;49.044;8.716;2023-02-01T12:51:43;12.00;;;2.50;;
25609;SDS011;13479;49.044;8.716;2023-02-01T12:56:56;5.63;;;1.83;;
25609;SDS011;13479;49.044;8.716;2023-02-01T12:59:28;9.00;;;1.90;;
25609;SDS011;13479;49.044;8.716;2023-02-01T13:01:59;12.27;;;2.47;;
25609;SDS011;13479;49.044;8.716;2023-02-01T13:04:32;12.83;;;2.60;;
25609;SDS011;13479;49.044;8.716;2023-02-01T13:07:06;11.83;;;2.33;;
25609;SDS011;13479;49.044;8.716;2023-02-01T13:09:52;12.77;;;2.30;;
25609;SDS011;13479;49.044;8.716;2023-02-01T13:12:26;13.03;;;2.50;;
25609;SDS011;13479;49.044;8.716;2023-02-01T13:14:54;12.50;;;2.22;;
25609;SDS011;13479;49.044;8.716;2023-02-01T13:17:24;15.23;;;2.40;;
25609;SDS011;13479;49.044;8.716;2023-02-01T13:19:54;8.73;;;2.10;;
25609;SDS011;13479;49.044;8.716;2023-02-01T13:22:28;10.30;;;2.30;;
25609;SDS011;13479;49.044;8.716;2023-02-01T13:25:00;13.73;;;2.35;;
25609;SDS011;13479;49.044;8.716;2023-02-01T13:27:37;15.60;;;2.70;;
25609;SDS011;13479;49.044;8.716;2023-02-01T13:30:15;10.30;;;2.17;;
25609;SDS011;13479;49.044;8.716;2023-02-01T13:32:59;10.85;;;2.08;;
25609;SDS011;13479;49.044;8.716;2023-02-01T13:38:14;14.67;;;2.70;;
25609;SDS011;13479;49.044;8.716;2023-02-01T13:43:42;8.83;;;2.10;;
25609;SDS011;13479;49.044;8.716;2023-02-01T13:46:12;14.05;;;2.97;;
25609;SDS011;13479;49.044;8.716;2023-02-01T13:48:46;12.88;;;2.67;;
25609;SDS011;13479;49.044;8.716;2023-02-01T13:51:15;12.80;;;2.40;;
25609;SDS011;13479;49.044;8.716;2023-02-01T13:53:53;11.13;;;2.50;;
25609;SDS011;13479;49.044;8.716;2023-02-01T13:56:19;16.47;;;2.90;;
25609;SDS011;13479;49.044;8.716;2023-02-01T13:58:47;12.95;;;2.97;;
25609;SDS011;13479;49.044;8.716;2023-02-01T14:03:56;16.77;;;2.93;;
25609;SDS011;13479;49.044;8.716;2023-02-01T14:16:39;16.13;;;2.77;;
25609;SDS011;13479;49.044;8.716;2023-02-01T14:19:17;18.37;;;2.90;;
25609;SDS011;13479;49.044;8.716;2023-02-01T14:21:49;12.33;;;2.30;;
25609;SDS011;13479;49.044;8.716;2023-02-01T14:26:51;11.73;;;2.40;;
25609;SDS011;13479;49.044;8.716;2023-02-01T14:29:24;12.03;;;2.10;;
25609;SDS011;13479;49.044;8.716;2023-02-01T14:36:59;15.13;;;2.37;;
25609;SDS011;13479;49.044;8.716;2023-02-01T14:39:30;13.77;;;2.50;;
25609;SDS011;13479;49.044;8.716;2023-02-01T14:42:00;18.63;;;2.80;;
25609;SDS011;13479;49.044;8.716;2023-02-01T14:44:30;14.37;;;2.70;;
25609;SDS011;13479;49.044;8.716;2023-02-01T14:47:05;13.40;;;2.10;;
25609;SDS011;13479;49.044;8.716;2023-02-01T14:52:45;12.57;;;2.40;;
25609;SDS011;13479;49.044;8.716;2023-02-01T14:55:18;11.60;;;2.53;;
25609;SDS011;13479;49.044;8.716;2023-02-01T14:57:50;13.63;;;2.60;;
25609;SDS011;13479;49.044;8.716;2023-02-01T15:00:23;13.93;;;2.37;;
25609;SDS011;13479;49.044;8.716;2023-02-01T15:02:51;15.77;;;2.63;;
25609;SDS011;13479;49.044;8.716;2023-02-01T15:05:31;14.57;;;2.85;;
25609;SDS011;13479;49.044;8.716;2023-02-01T15:08:25;12.53;;;2.60;;
25609;SDS011;13479;49.044;8.716;2023-02-01T15:11:00;11.77;;;2.13;;
25609;SDS011;13479;49.044;8.716;2023-02-01T15:13:31;19.73;;;2.63;;
25609;SDS011;13479;49.044;8.716;2023-02-01T15:16:09;17.93;;;2.50;;
25609;SDS011;13479;49.044;8.716;2023-02-01T15:18:39;15.27;;;2.53;;
25609;SDS011;13479;49.044;8.716;2023-02-01T15:21:06;16.80;;;2.72;;
25609;SDS011;13479;49.044;8.716;2023-02-01T15:23:39;17.93;;;2.53;;
25609;SDS011;13479;49.044;8.716;2023-02-01T15:26:04;16.80;;;2.87;;
25609;SDS011;13479;49.044;8.716;2023-02-01T15:28:29;13.07;;;2.40;;
25609;SDS011;13479;49.044;8.716;2023-02-01T15:30:56;14.00;;;2.63;;
25609;SDS011;13479;49.044;8.716;2023-02-01T15:33:26;16.93;;;2.83;;
25609;SDS011;13479;49.044;8.716;2023-02-01T15:35:54;13.20;;;2.00;;
25609;SDS011;13479;49.044;8.716;2023-02-01T15:41:05;11.67;;;2.17;;
25609;SDS011;13479;49.044;8.716;2023-02-01T15:44:03;11.33;;;2.40;;
25609;SDS011;13479;49.044;8.716;2023-02-01T15:46:41;9.07;;;2.00;;
25609;SDS011;13479;49.044;8.716;2023-02-01T15:49:17;13.43;;;2.47;;
25609;SDS011;13479;49.044;8.716;2023-02-01T15:51:46;13.67;;;1.80;;
25609;SDS011;13479;49.044;8.716;2023-02-01T15:54:13;12.03;;;1.90;;
25609;SDS011;13479;49.044;8.716;2023-02-01T15:56:47;17.17;;;2.00;;
25609;SDS011;13479;49.044;8.716;2023-02-01T15:59:18;9.43;;;2.20;;
25609;SDS011;13479;49.044;8.716;2023-02-01T16:01:45;13.17;;;2.23;;
25609;SDS011;13479;49.044;8.716;2023-02-01T16:06:53;13.33;;;2.43;;
25609;SDS011;13479;49.044;8.716;2023-02-01T16:09:22;12.57;;;2.10;;
25609;SDS011;13479;49.044;8.716;2023-02-01T16:11:54;11.00;;;2.10;;
25609;SDS011;13479;49.044;8.716;2023-02-01T16:14:24;10.10;;;2.57;;
25609;SDS011;13479;49.044;8.716;2023-02-01T16:16:51;10.70;;;2.10;;
25609;SDS011;13479;49.044;8.716;2023-02-01T16:19:17;15.40;;;2.57;;
25609;SDS011;13479;49.044;8.716;2023-02-01T16:21:43;17.90;;;2.33;;
25609;SDS011;13479;49.044;8.716;2023-02-01T16:24:10;19.60;;;2.60;;
25609;SDS011;13479;49.044;8.716;2023-02-01T16:26:35;14.00;;;2.23;;
25609;SDS011;13479;49.044;8.716;2023-02-01T16:29:02;14.80;;;2.43;;
25609;SDS011;13479;49.044;8.716;2023-02-01T16:31:31;14.97;;;2.67;;
25609;SDS011;13479;49.044;8.716;2023-02-01T16:34:02;14.07;;;2.53;;
25609;SDS011;13479;49.044;8.716;2023-02-01T16:36:27;13.17;;;2.63;;
25609;SDS011;13479;49.044;8.716;2023-02-01T16:38:53;12.67;;;2.43;;
25609;SDS011;13479;49.044;8.716;2023-02-01T16:41:20;14.50;;;2.47;;
25609;SDS011;13479;49.044;8.716;2023-02-01T16:43:51;13.00;;;2.43;;
25609;SDS011;13479;49.044;8.716;2023-02-01T16:46:18;14.07;;;2.53;;
25609;SDS011;13479;49.044;8.716;2023-02-01T16:48:50;13.07;;;2.07;;
25609;SDS011;13479;49.044;8.716;2023-02-01T16:51:17;16.63;;;2.37;;
25609;SDS011;13479;49.044;8.716;2023-02-01T16:53:44;14.37;;;2.23;;
25609;SDS011;13479;49.044;8.716;2023-02-01T16:56:17;16.90;;;2.70;;
25609;SDS011;13479;49.044;8.716;2023-02-01T16:58:44;16.13;;;2.57;;
25609;SDS011;13479;49.044;8.716;2023-02-01T17:01:11;12.60;;;2.40;;
25609;SDS011;13479;49.044;8.716;2023-02-01T17:06:02;9.93;;;2.27;;
25609;SDS011;13479;49.044;8.716;2023-02-01T17:08:30;13.43;;;2.60;;
25609;SDS011;13479;49.044;8.716;2023-02-01T17:10:57;8.30;;;1.63;;
25609;SDS011;13479;49.044;8.716;2023-02-01T17:13:22;8.57;;;2.10;;
25609;SDS011;13479;49.044;8.716;2023-02-01T17:15:49;12.03;;;2.33;;
25609;SDS011;13479;49.044;8.716;2023-02-01T17:18:18;10.67;;;2.07;;
25609;SDS011;13479;49.044;8.716;2023-02-01T17:20:43;6.10;;;1.80;;
25609;SDS011;13479;49.044;8.716;2023-02-01T17:23:11;12.83;;;2.60;;
25609;SDS011;13479;49.044;8.716;2023-02-01T17:25:36;13.17;;;2.50;;
25609;SDS011;13479;49.044;8.716;2023-02-01T17:28:02;15.00;;;2.77;;
25609;SDS011;13479;49.044;8.716;2023-02-01T17:30:27;12.83;;;2.43;;
25609;SDS011;13479;49.044;8.716;2023-02-01T17:32:53;6.37;;;1.77;;
25609;SDS011;13479;49.044;8.716;2023-02-01T17:35:21;14.07;;;2.50;;
25609;SDS011;13479;49.044;8.716;2023-02-01T17:37:49;10.80;;;2.27;;
25609;SDS011;13479;49.044;8.716;2023-02-01T17:40:15;10.73;;;2.20;;
25609;SDS011;13479;49.044;8.716;2023-02-01T17:42:41;8.47;;;2.20;;
25609;SDS011;13479;49.044;8.716;2023-02-01T17:45:16;13.20;;;2.50;;
25609;SDS011;13479;49.044;8.716;2023-02-01T17:47:43;12.83;;;2.50;;
25609;SDS011;13479;49.044;8.716;2023-02-01T17:50:09;14.53;;;2.37;;
25609;SDS011;13479;49.044;8.716;2023-02-01T17:52:34;9.63;;;2.10;;
25609;SDS011;13479;49.044;8.716;2023-02-01T17:55:00;12.47;;;2.57;;
25609;SDS011;13479;49.044;8.716;2023-02-01T17:57:27;13.57;;;2.50;;
25609;SDS011;13479;49.044;8.716;2023-02-01T17:59:52;17.00;;;2.20;;
25609;SDS011;13479;49.044;8.716;2023-02-01T18:02:19;17.83;;;2.80;;
25609;SDS011;13479;49.044;8.716;2023-02-01T18:04:46;20.87;;;3.07;;
25609;SDS011;13479;49.044;8.716;2023-02-01T18:07:11;17.50;;;2.87;;
25609;SDS011;13479;49.044;8.716;2023-02-01T18:09:37;14.87;;;2.13;;
25609;SDS011;13479;49.044;8.716;2023-02-01T18:12:05;10.93;;;2.20;;
25609;SDS011;13479;49.044;8.716;2023-02-01T18:14:31;13.63;;;2.00;;
25609;SDS011;13479;49.044;8.716;2023-02-01T18:16:57;15.83;;;2.50;;
25609;SDS011;13479;49.044;8.716;2023-02-01T18:19:22;13.20;;;2.58;;
25609;SDS011;13479;49.044;8.716;2023-02-01T18:21:48;12.43;;;2.50;;
25609;SDS011;13479;49.044;8.716;2023-02-01T18:24:13;12.83;;;2.37;;
25609;SDS011;13479;49.044;8.716;2023-02-01T18:26:40;13.83;;;2.70;;
25609;SDS011;13479;49.044;8.716;2023-02-01T18:29:06;12.20;;;2.57;;
25609;SDS011;13479;49.044;8.716;2023-02-01T18:31:31;12.63;;;2.27;;
25609;SDS011;13479;49.044;8.716;2023-02-01T18:33:58;14.07;;;2.50;;
25609;SDS011;13479;49.044;8.716;2023-02-01T18:36:24;13.40;;;2.10;;
25609;SDS011;13479;49.044;8.716;2023-02-01T18:38:51;15.87;;;2.63;;
25609;SDS011;13479;49.044;8.716;2023-02-01T18:41:20;16.40;;;2.40;;
25609;SDS011;13479;49.044;8.716;2023-02-01T18:43:47;13.00;;;2.30;;
25609;SDS011;13479;49.044;8.716;2023-02-01T18:46:13;14.57;;;2.30;;
25609;SDS011;13479;49.044;8.716;2023-02-01T18:48:39;10.80;;;2.20;;
25609;SDS011;13479;49.044;8.716;2023-02-01T18:51:05;13.03;;;2.57;;
25609;SDS011;13479;49.044;8.716;2023-02-01T18:53:31;10.73;;;2.27;;
25609;SDS011;13479;49.044;8.716;2023-02-01T18:55:57;13.23;;;2.40;;
25609;SDS011;13479;49.044;8.716;2023-02-01T18:58:23;11.83;;;2.27;;
25609;SDS011;13479;49.044;8.716;2023-02-01T19:00:50;12.63;;;2.47;;
25609;SDS011;13479;49.044;8.716;2023-02-01T19:03:17;12.50;;;2.10;;
25609;SDS011;13479;49.044;8.716;2023-02-01T19:05:42;11.87;;;2.27;;
25609;SDS011;13479;49.044;8.716;2023-02-01T19:08:08;13.73;;;2.10;;
25609;SDS011;13479;49.044;8.716;2023-02-01T19:10:34;11.33;;;2.20;;
25609;SDS011;13479;49.044;8.716;2023-02-01T19:13:02;12.63;;;2.50;;
25609;SDS011;13479;49.044;8.716;2023-02-01T19:15:27;7.70;;;2.10;;
25609;SDS011;13479;49.044;8.716;2023-02-01T19:17:53;11.10;;;2.10;;
25609;SDS011;13479;49.044;8.716;2023-02-01T19:20:20;13.03;;;2.10;;
25609;SDS011;13479;49.044;8.716;2023-02-01T19:22:48;11.97;;;2.20;;
25609;SDS011;13479;49.044;8.716;2023-02-01T19:25:18;12.27;;;2.10;;
25609;SDS011;13479;49.044;8.716;2023-02-01T19:27:46;9.17;;;1.97;;
25609;SDS011;13479;49.044;8.716;2023-02-01T19:30:12;12.27;;;2.30;;
25609;SDS011;13479;49.044;8.716;2023-02-01T19:32:38;10.53;;;1.93;;
25609;SDS011;13479;49.044;8.716;2023-02-01T19:35:04;11.30;;;2.10;;
25609;SDS011;13479;49.044;8.716;2023-02-01T19:37:29;15.77;;;2.50;;
25609;SDS011;13479;49.044;8.716;2023-02-01T19:39:55;14.10;;;2.50;;
25609;SDS011;13479;49.044;8.716;2023-02-01T19:42:22;14.63;;;2.80;;
25609;SDS011;13479;49.044;8.716;2023-02-01T19:44:49;13.93;;;2.03;;
25609;SDS011;13479;49.044;8.716;2023-02-01T19:47:14;11.33;;;2.60;;
25609;SDS011;13479;49.044;8.716;2023-02-01T19:49:39;11.73;;;2.40;;
25609;SDS011;13479;49.044;8.716;2023-02-01T19:52:05;15.97;;;2.90;;
25609;SDS011;13479;49.044;8.716;2023-02-01T19:54:30;11.03;;;1.80;;
25609;SDS011;13479;49.044;8.716;2023-02-01T19:56:55;14.83;;;2.60;;
25609;SDS011;13479;49.044;8.716;2023-02-01T19:59:20;12.37;;;2.20;;
25609;SDS011;13479;49.044;8.716;2023-02-01T20:01:46;10.17;;;2.50;;
25609;SDS011;13479;49.044;8.716;2023-02-01T20:04:14;10.87;;;2.17;;
25609;SDS011;13479;49.044;8.716;2023-02-01T20:06:41;11.30;;;2.13;;
25609;SDS011;13479;49.044;8.716;2023-02-01T20:09:14;14.23;;;2.10;;
25609;SDS011;13479;49.044;8.716;2023-02-01T20:11:41;10.77;;;1.80;;
25609;SDS011;13479;49.044;8.716;2023-02-01T20:14:07;12.73;;;2.00;;
25609;SDS011;13479;49.044;8.716;2023-02-01T20:16:33;17.97;;;2.30;;
25609;SDS011;13479;49.044;8.716;2023-02-01T20:18:58;14.07;;;2.13;;
25609;SDS011;13479;49.044;8.716;2023-02-01T20:21:24;14.83;;;2.37;;
25609;SDS011;13479;49.044;8.716;2023-02-01T20:23:49;11.07;;;2.20;;
25609;SDS011;13479;49.044;8.716;2023-02-01T20:26:15;13.57;;;2.33;;
25609;SDS011;13479;49.044;8.716;2023-02-01T20:28:40;13.40;;;2.20;;
25609;SDS011;13479;49.044;8.716;2023-02-01T20:31:06;15.97;;;2.53;;
25609;SDS011;13479;49.044;8.716;2023-02-01T20:33:34;12.50;;;2.50;;
25609;SDS011;13479;49.044;8.716;2023-02-01T20:36:00;9.23;;;2.10;;
25609;SDS011;13479;49.044;8.716;2023-02-01T20:38:25;13.67;;;2.87;;
25609;SDS011;13479;49.044;8.716;2023-02-01T20:40:51;13.87;;;2.57;;
25609;SDS011;13479;49.044;8.716;2023-02-01T20:43:16;12.50;;;2.40;;
25609;SDS011;13479;49.044;8.716;2023-02-01T20:45:42;10.30;;;2.13;;
25609;SDS011;13479;49.044;8.716;2023-02-01T20:48:08;12.80;;;2.30;;
25609;SDS011;13479;49.044;8.716;2023-02-01T20:50:35;12.10;;;2.43;;
25609;SDS011;13479;49.044;8.716;2023-02-01T20:53:01;12.57;;;2.10;;
25609;SDS011;13479;49.044;8.716;2023-02-01T20:55:27;10.47;;;2.07;;
25609;SDS011;13479;49.044;8.716;2023-02-01T20:57:53;13.30;;;2.20;;
25609;SDS011;13479;49.044;8.716;2023-02-01T21:00:18;14.17;;;2.33;;
25609;SDS011;13479;49.044;8.716;2023-02-01T21:02:46;14.27;;;2.20;;
25609;SDS011;13479;49.044;8.716;2023-02-01T21:05:12;14.73;;;2.00;;
25609;SDS011;13479;49.044;8.716;2023-02-01T21:07:37;14.07;;;2.23;;
25609;SDS011;13479;49.044;8.716;2023-02-01T21:10:03;14.93;;;2.60;;
25609;SDS011;13479;49.044;8.716;2023-02-01T21:12:29;12.43;;;1.97;;
25609;SDS011;13479;49.044;8.716;2023-02-01T21:14:54;16.03;;;2.73;;
25609;SDS011;13479;49.044;8.716;2023-02-01T21:17:19;13.87;;;2.43;;
25609;SDS011;13479;49.044;8.716;2023-02-01T21:19:46;9.97;;;2.57;;
25609;SDS011;13479;49.044;8.716;2023-02-01T21:22:12;12.83;;;2.40;;
25609;SDS011;13479;49.044;8.716;2023-02-01T21:24:39;18.83;;;2.67;;
25609;SDS011;13479;49.044;8.716;2023-02-01T21:27:05;14.00;;;2.40;;
25609;SDS011;13479;49.044;8.716;2023-02-01T21:29:31;21.60;;;3.03;;
25609;SDS011;13479;49.044;8.716;2023-02-01T21:31:57;15.30;;;2.43;;
25609;SDS011;13479;49.044;8.716;2023-02-01T21:34:23;12.40;;;2.47;;
25609;SDS011;13479;49.044;8.716;2023-02-01T21:36:48;19.42;;;3.00;;
25609;SDS011;13479;49.044;8.716;2023-02-01T21:39:13;13.27;;;2.40;;
25609;SDS011;13479;49.044;8.716;2023-02-01T21:41:40;11.63;;;2.63;;
25609;SDS011;13479;49.044;8.716;2023-02-01T21:44:24;17.07;;;3.30;;
25609;SDS011;13479;49.044;8.716;2023-02-01T21:46:49;13.75;;;2.38;;
25609;SDS011;13479;49.044;8.716;2023-02-01T21:49:15;13.57;;;2.53;;
25609;SDS011;13479;49.044;8.716;2023-02-01T21:51:40;17.10;;;2.53;;
25609;SDS011;13479;49.044;8.716;2023-02-01T21:54:07;16.47;;;2.30;;
25609;SDS011;13479;49.044;8.716;2023-02-01T21:56:33;16.30;;;2.30;;
25609;SDS011;13479;49.044;8.716;2023-02-01T21:59:00;23.33;;;2.80;;
